Terminal Aerodrome Forecast
Issued by NWS

Home | Current Version | Previous Version | Text Only | Print | Product List | Glossary On
Versions: 1 2 3 4 5 6 7 8 9 10 11 12 13 14 15 16 17
000
FTUS46 KPDT 090016 AAA
TAFYKM
TAF AMD
KYKM 090016Z 0900/0924 03009KT 3/4SM -SN BR VV009
      TEMPO 0900/0903 1/2SM SN FZFG VV005
     FM090700 32006KT 5SM -SHSNPL OVC015
     FM091500 31005KT 5SM -SHSN SCT010 BKN025=

USA.gov is the U.S. government's official web portal to all federal, state and local government web resources and services.